sensor_id;sensor_type;location;lat;lon;timestamp;pressure;altitude;pressure_sealevel;temperature;humidity
72370;BME280;60343;-32.030;115.880;2022-12-01T00:01:18;100997.78;;;21.65;69.28
72370;BME280;60343;-32.030;115.880;2022-12-01T00:03:46;100996.81;;;21.71;68.45
72370;BME280;60343;-32.030;115.880;2022-12-01T00:06:20;101000.50;;;21.65;69.19
72370;BME280;60343;-32.030;115.880;2022-12-01T00:08:50;100999.53;;;21.82;68.20
72370;BME280;60343;-32.030;115.880;2022-12-01T00:11:17;101008.59;;;21.88;68.27
72370;BME280;60343;-32.030;115.880;2022-12-01T00:13:45;100998.91;;;21.92;68.36
72370;BME280;60343;-32.030;115.880;2022-12-01T00:16:14;100996.53;;;21.96;67.39
72370;BME280;60343;-32.030;115.880;2022-12-01T00:18:47;100999.03;;;21.86;67.90
72370;BME280;60343;-32.030;115.880;2022-12-01T00:21:24;101011.22;;;21.83;67.74
72370;BME280;60343;-32.030;115.880;2022-12-01T00:23:54;101004.25;;;21.87;67.24
72370;BME280;60343;-32.030;115.880;2022-12-01T00:26:22;101002.72;;;21.79;67.62
72370;BME280;60343;-32.030;115.880;2022-12-01T00:28:50;101003.09;;;21.71;68.19
72370;BME280;60343;-32.030;115.880;2022-12-01T00:31:18;100998.81;;;21.75;68.05
72370;BME280;60343;-32.030;115.880;2022-12-01T00:33:46;101005.34;;;21.74;67.77
72370;BME280;60343;-32.030;115.880;2022-12-01T00:36:19;101009.13;;;21.73;68.04
72370;BME280;60343;-32.030;115.880;2022-12-01T00:38:49;101004.75;;;21.72;68.07
72370;BME280;60343;-32.030;115.880;2022-12-01T00:41:17;101004.47;;;21.86;67.03
72370;BME280;60343;-32.030;115.880;2022-12-01T00:43:45;101009.81;;;21.92;66.95
72370;BME280;60343;-32.030;115.880;2022-12-01T00:46:13;101007.53;;;21.89;67.61
72370;BME280;60343;-32.030;115.880;2022-12-01T00:48:41;101008.72;;;21.93;67.75
72370;BME280;60343;-32.030;115.880;2022-12-01T00:51:08;101008.59;;;22.00;67.24
72370;BME280;60343;-32.030;115.880;2022-12-01T00:53:42;101006.91;;;22.10;66.38
72370;BME280;60343;-32.030;115.880;2022-12-01T00:56:09;101012.97;;;22.12;66.22
72370;BME280;60343;-32.030;115.880;2022-12-01T00:58:37;101013.81;;;22.01;66.62
72370;BME280;60343;-32.030;115.880;2022-12-01T01:01:05;101011.94;;;21.90;67.54
72370;BME280;60343;-32.030;115.880;2022-12-01T01:03:33;101019.03;;;21.91;66.78
72370;BME280;60343;-32.030;115.880;2022-12-01T01:06:04;101020.25;;;21.95;67.53
72370;BME280;60343;-32.030;115.880;2022-12-01T01:08:33;101017.13;;;22.03;67.09
72370;BME280;60343;-32.030;115.880;2022-12-01T01:11:07;101023.91;;;22.01;67.02
72370;BME280;60343;-32.030;115.880;2022-12-01T01:13:35;101023.41;;;22.04;66.77
72370;BME280;60343;-32.030;115.880;2022-12-01T01:16:04;101029.56;;;22.11;66.15
72370;BME280;60343;-32.030;115.880;2022-12-01T01:18:33;101033.22;;;22.16;65.99
72370;BME280;60343;-32.030;115.880;2022-12-01T01:21:02;101032.81;;;22.24;66.62
72370;BME280;60343;-32.030;115.880;2022-12-01T01:23:30;101030.88;;;22.37;65.81
72370;BME280;60343;-32.030;115.880;2022-12-01T01:26:09;101031.06;;;22.47;64.57
72370;BME280;60343;-32.030;115.880;2022-12-01T01:28:37;101026.84;;;22.56;64.82
72370;BME280;60343;-32.030;115.880;2022-12-01T01:31:06;101028.34;;;22.63;64.14
72370;BME280;60343;-32.030;115.880;2022-12-01T01:33:37;101020.78;;;22.82;63.29
72370;BME280;60343;-32.030;115.880;2022-12-01T01:36:08;101025.44;;;22.98;62.35
72370;BME280;60343;-32.030;115.880;2022-12-01T01:38:36;101019.78;;;23.05;62.32
72370;BME280;60343;-32.030;115.880;2022-12-01T01:41:13;101026.88;;;23.23;62.09
72370;BME280;60343;-32.030;115.880;2022-12-01T01:43:45;101020.75;;;23.32;61.74
72370;BME280;60343;-32.030;115.880;2022-12-01T01:46:16;101033.13;;;23.40;60.77
72370;BME280;60343;-32.030;115.880;2022-12-01T01:48:48;101023.47;;;23.32;62.58
72370;BME280;60343;-32.030;115.880;2022-12-01T01:51:19;101029.63;;;23.23;62.14
72370;BME280;60343;-32.030;115.880;2022-12-01T01:53:49;101027.13;;;23.04;62.62
72370;BME280;60343;-32.030;115.880;2022-12-01T01:56:23;101032.44;;;23.11;61.88
72370;BME280;60343;-32.030;115.880;2022-12-01T01:58:52;101035.09;;;23.23;62.30
72370;BME280;60343;-32.030;115.880;2022-12-01T02:01:20;101037.31;;;23.26;61.92
72370;BME280;60343;-32.030;115.880;2022-12-01T02:03:48;101032.75;;;23.31;62.57
72370;BME280;60343;-32.030;115.880;2022-12-01T02:06:17;101030.34;;;23.35;61.56
72370;BME280;60343;-32.030;115.880;2022-12-01T02:08:45;101035.84;;;23.18;61.81
72370;BME280;60343;-32.030;115.880;2022-12-01T02:11:48;101028.19;;;23.20;61.93
72370;BME280;60343;-32.030;115.880;2022-12-01T02:14:37;101025.41;;;23.15;61.48
72370;BME280;60343;-32.030;115.880;2022-12-01T02:17:16;101035.00;;;23.01;62.39
72370;BME280;60343;-32.030;115.880;2022-12-01T02:22:45;101033.59;;;23.15;61.69
72370;BME280;60343;-32.030;115.880;2022-12-01T02:25:30;101027.59;;;23.35;60.35
72370;BME280;60343;-32.030;115.880;2022-12-01T02:28:16;101033.59;;;23.48;60.13
72370;BME280;60343;-32.030;115.880;2022-12-01T02:30:54;101018.19;;;23.64;60.28
72370;BME280;60343;-32.030;115.880;2022-12-01T02:33:26;101024.94;;;23.57;60.73
72370;BME280;60343;-32.030;115.880;2022-12-01T02:36:00;101028.19;;;23.54;60.61
72370;BME280;60343;-32.030;115.880;2022-12-01T02:38:32;101023.66;;;23.64;60.02
72370;BME280;60343;-32.030;115.880;2022-12-01T02:41:07;101021.19;;;23.84;59.73
72370;BME280;60343;-32.030;115.880;2022-12-01T02:43:41;101017.69;;;24.11;59.21
72370;BME280;60343;-32.030;115.880;2022-12-01T02:46:21;101022.38;;;24.37;58.59
72370;BME280;60343;-32.030;115.880;2022-12-01T02:48:52;101016.84;;;24.59;57.98
72370;BME280;60343;-32.030;115.880;2022-12-01T02:51:24;101013.47;;;24.78;56.76
72370;BME280;60343;-32.030;115.880;2022-12-01T02:53:55;101015.66;;;24.82;56.51
72370;BME280;60343;-32.030;115.880;2022-12-01T02:56:23;101020.00;;;24.77;55.90
72370;BME280;60343;-32.030;115.880;2022-12-01T02:58:51;101011.81;;;24.51;57.29
72370;BME280;60343;-32.030;115.880;2022-12-01T03:01:34;100999.00;;;24.56;56.80
72370;BME280;60343;-32.030;115.880;2022-12-01T03:07:11;101009.78;;;24.95;55.98
72370;BME280;60343;-32.030;115.880;2022-12-01T03:12:34;101014.31;;;25.16;55.77
72370;BME280;60343;-32.030;115.880;2022-12-01T03:15:08;101009.44;;;25.23;55.13
72370;BME280;60343;-32.030;115.880;2022-12-01T03:17:46;101009.13;;;25.19;55.13
72370;BME280;60343;-32.030;115.880;2022-12-01T03:20:21;101020.34;;;25.55;53.71
72370;BME280;60343;-32.030;115.880;2022-12-01T03:22:54;101014.34;;;25.63;53.37
72370;BME280;60343;-32.030;115.880;2022-12-01T03:25:26;101014.38;;;25.68;53.93
72370;BME280;60343;-32.030;115.880;2022-12-01T03:27:55;101011.91;;;25.72;53.31
72370;BME280;60343;-32.030;115.880;2022-12-01T03:30:25;101009.81;;;25.94;51.96
72370;BME280;60343;-32.030;115.880;2022-12-01T03:33:02;101012.53;;;25.89;52.21
72370;BME280;60343;-32.030;115.880;2022-12-01T03:35:34;101010.03;;;25.82;51.83
72370;BME280;60343;-32.030;115.880;2022-12-01T03:38:04;101008.88;;;25.68;51.95
72370;BME280;60343;-32.030;115.880;2022-12-01T03:40:36;101010.59;;;25.37;53.08
72370;BME280;60343;-32.030;115.880;2022-12-01T03:43:07;100995.91;;;25.11;54.81
72370;BME280;60343;-32.030;115.880;2022-12-01T03:45:42;101002.97;;;25.02;54.77
72370;BME280;60343;-32.030;115.880;2022-12-01T03:48:24;100994.94;;;24.91;55.22
72370;BME280;60343;-32.030;115.880;2022-12-01T03:50:58;101001.47;;;24.85;55.67
72370;BME280;60343;-32.030;115.880;2022-12-01T03:53:33;101004.88;;;24.70;56.68
72370;BME280;60343;-32.030;115.880;2022-12-01T03:56:07;100995.78;;;24.59;56.69
72370;BME280;60343;-32.030;115.880;2022-12-01T03:58:53;101005.31;;;24.57;57.05
72370;BME280;60343;-32.030;115.880;2022-12-01T04:01:23;101003.78;;;24.39;58.08
72370;BME280;60343;-32.030;115.880;2022-12-01T04:03:56;101011.47;;;24.42;57.80
72370;BME280;60343;-32.030;115.880;2022-12-01T04:06:26;101012.75;;;24.34;57.68
72370;BME280;60343;-32.030;115.880;2022-12-01T04:08:57;101010.59;;;24.36;58.02
72370;BME280;60343;-32.030;115.880;2022-12-01T04:11:24;101006.53;;;24.39;58.96
72370;BME280;60343;-32.030;115.880;2022-12-01T04:13:52;101012.59;;;24.46;58.61
72370;BME280;60343;-32.030;115.880;2022-12-01T04:16:20;101020.16;;;24.12;59.59
72370;BME280;60343;-32.030;115.880;2022-12-01T04:18:47;101027.75;;;23.83;60.07
72370;BME280;60343;-32.030;115.880;2022-12-01T04:21:21;101016.00;;;23.83;59.97
72370;BME280;60343;-32.030;115.880;2022-12-01T04:23:48;101015.34;;;23.76;59.34
72370;BME280;60343;-32.030;115.880;2022-12-01T04:26:16;101008.84;;;23.60;60.44
72370;BME280;60343;-32.030;115.880;2022-12-01T04:28:44;101005.88;;;23.62;60.26
72370;BME280;60343;-32.030;115.880;2022-12-01T04:31:12;101009.94;;;23.59;59.87
72370;BME280;60343;-32.030;115.880;2022-12-01T04:33:39;101007.13;;;23.54;60.30
72370;BME280;60343;-32.030;115.880;2022-12-01T04:36:08;100993.34;;;23.66;59.53
72370;BME280;60343;-32.030;115.880;2022-12-01T04:38:41;101001.44;;;23.77;59.34
72370;BME280;60343;-32.030;115.880;2022-12-01T04:41:10;100997.22;;;23.91;58.75
72370;BME280;60343;-32.030;115.880;2022-12-01T04:43:40;100999.78;;;24.25;57.93
72370;BME280;60343;-32.030;115.880;2022-12-01T04:46:08;100992.28;;;24.37;56.65
72370;BME280;60343;-32.030;115.880;2022-12-01T04:48:37;101004.25;;;24.31;57.05
72370;BME280;60343;-32.030;115.880;2022-12-01T04:51:05;101003.31;;;24.20;56.89
72370;BME280;60343;-32.030;115.880;2022-12-01T04:53:39;101002.22;;;24.00;57.84
72370;BME280;60343;-32.030;115.880;2022-12-01T04:56:07;100997.16;;;24.08;57.75
72370;BME280;60343;-32.030;115.880;2022-12-01T04:58:36;100990.22;;;24.22;57.22
72370;BME280;60343;-32.030;115.880;2022-12-01T05:01:10;100988.13;;;24.34;56.36
72370;BME280;60343;-32.030;115.880;2022-12-01T05:03:39;100989.09;;;24.50;56.39
72370;BME280;60343;-32.030;115.880;2022-12-01T05:06:10;100996.63;;;24.65;56.04
72370;BME280;60343;-32.030;115.880;2022-12-01T05:08:43;100995.94;;;24.79;55.66
72370;BME280;60343;-32.030;115.880;2022-12-01T05:11:12;100993.16;;;24.74;56.14
72370;BME280;60343;-32.030;115.880;2022-12-01T05:13:49;100991.72;;;24.67;56.03
72370;BME280;60343;-32.030;115.880;2022-12-01T05:16:20;100988.09;;;24.61;55.66
72370;BME280;60343;-32.030;115.880;2022-12-01T05:18:49;101002.28;;;24.53;56.31
72370;BME280;60343;-32.030;115.880;2022-12-01T05:21:18;100985.94;;;24.63;55.89
72370;BME280;60343;-32.030;115.880;2022-12-01T05:23:54;100981.13;;;24.80;56.05
72370;BME280;60343;-32.030;115.880;2022-12-01T05:26:22;100979.09;;;24.93;54.86
72370;BME280;60343;-32.030;115.880;2022-12-01T05:28:49;100982.16;;;25.01;54.78
72370;BME280;60343;-32.030;115.880;2022-12-01T05:31:17;100971.78;;;25.08;53.67
72370;BME280;60343;-32.030;115.880;2022-12-01T05:33:47;100981.00;;;25.34;52.71
72370;BME280;60343;-32.030;115.880;2022-12-01T05:36:15;100982.63;;;25.35;52.75
72370;BME280;60343;-32.030;115.880;2022-12-01T05:38:44;100976.59;;;25.33;52.47
72370;BME280;60343;-32.030;115.880;2022-12-01T05:41:17;100968.94;;;25.40;53.40
72370;BME280;60343;-32.030;115.880;2022-12-01T05:43:45;100976.63;;;25.38;53.45
72370;BME280;60343;-32.030;115.880;2022-12-01T05:46:13;100971.16;;;25.43;53.02
72370;BME280;60343;-32.030;115.880;2022-12-01T05:48:41;100963.91;;;25.64;51.84
72370;BME280;60343;-32.030;115.880;2022-12-01T05:51:12;100962.81;;;25.65;52.00
72370;BME280;60343;-32.030;115.880;2022-12-01T05:53:41;100964.19;;;25.68;51.83
72370;BME280;60343;-32.030;115.880;2022-12-01T05:56:08;100961.75;;;25.86;51.36
72370;BME280;60343;-32.030;115.880;2022-12-01T05:58:42;100957.16;;;26.07;52.09
72370;BME280;60343;-32.030;115.880;2022-12-01T06:01:10;100953.13;;;26.30;50.50
72370;BME280;60343;-32.030;115.880;2022-12-01T06:03:40;100954.69;;;26.21;50.39
72370;BME280;60343;-32.030;115.880;2022-12-01T06:06:08;100951.94;;;26.21;50.27
72370;BME280;60343;-32.030;115.880;2022-12-01T06:08:36;100939.41;;;26.50;50.05
72370;BME280;60343;-32.030;115.880;2022-12-01T06:11:08;100939.09;;;26.77;48.74
72370;BME280;60343;-32.030;115.880;2022-12-01T06:13:41;100936.09;;;26.73;49.45
72370;BME280;60343;-32.030;115.880;2022-12-01T06:16:09;100948.47;;;26.45;49.70
72370;BME280;60343;-32.030;115.880;2022-12-01T06:18:42;100942.41;;;26.23;50.96
72370;BME280;60343;-32.030;115.880;2022-12-01T06:21:09;100945.16;;;26.23;50.80
72370;BME280;60343;-32.030;115.880;2022-12-01T06:23:37;100947.88;;;26.23;50.73
72370;BME280;60343;-32.030;115.880;2022-12-01T06:26:08;100956.03;;;25.93;51.31
72370;BME280;60343;-32.030;115.880;2022-12-01T06:28:41;100954.00;;;25.63;51.82
72370;BME280;60343;-32.030;115.880;2022-12-01T06:31:09;100953.00;;;25.84;51.18
72370;BME280;60343;-32.030;115.880;2022-12-01T06:33:36;100953.47;;;25.66;50.77
72370;BME280;60343;-32.030;115.880;2022-12-01T06:36:05;100957.66;;;25.84;50.96
72370;BME280;60343;-32.030;115.880;2022-12-01T06:38:34;100945.63;;;25.95;49.82
72370;BME280;60343;-32.030;115.880;2022-12-01T06:41:03;100951.13;;;26.05;50.86
72370;BME280;60343;-32.030;115.880;2022-12-01T06:43:31;100953.13;;;26.40;50.06
72370;BME280;60343;-32.030;115.880;2022-12-01T06:46:08;100956.09;;;26.18;49.60
72370;BME280;60343;-32.030;115.880;2022-12-01T06:48:36;100960.38;;;25.74;50.35
72370;BME280;60343;-32.030;115.880;2022-12-01T06:51:07;100969.78;;;25.41;51.87
72370;BME280;60343;-32.030;115.880;2022-12-01T06:53:37;100963.94;;;25.27;52.87
72370;BME280;60343;-32.030;115.880;2022-12-01T06:56:05;100971.28;;;25.16;53.20
72370;BME280;60343;-32.030;115.880;2022-12-01T06:58:33;100976.97;;;25.05;53.11
72370;BME280;60343;-32.030;115.880;2022-12-01T07:01:12;100975.69;;;24.86;53.57
72370;BME280;60343;-32.030;115.880;2022-12-01T07:03:40;100972.13;;;24.85;53.23
72370;BME280;60343;-32.030;115.880;2022-12-01T07:06:08;100969.88;;;25.09;52.88
72370;BME280;60343;-32.030;115.880;2022-12-01T07:08:36;100973.75;;;25.13;52.68
72370;BME280;60343;-32.030;115.880;2022-12-01T07:11:05;100956.56;;;25.28;52.65
72370;BME280;60343;-32.030;115.880;2022-12-01T07:13:35;100962.81;;;25.65;52.44
72370;BME280;60343;-32.030;115.880;2022-12-01T07:16:17;100962.63;;;25.35;52.09
72370;BME280;60343;-32.030;115.880;2022-12-01T07:18:45;100962.84;;;25.23;52.93
72370;BME280;60343;-32.030;115.880;2022-12-01T07:21:14;100951.31;;;25.21;53.65
72370;BME280;60343;-32.030;115.880;2022-12-01T07:23:42;100950.75;;;25.14;52.43
72370;BME280;60343;-32.030;115.880;2022-12-01T07:26:11;100951.97;;;25.38;52.15
72370;BME280;60343;-32.030;115.880;2022-12-01T07:28:39;100951.59;;;25.77;51.03
72370;BME280;60343;-32.030;115.880;2022-12-01T07:31:14;100953.81;;;25.80;50.55
72370;BME280;60343;-32.030;115.880;2022-12-01T07:33:42;100952.59;;;25.55;50.41
72370;BME280;60343;-32.030;115.880;2022-12-01T07:36:10;100954.19;;;25.51;50.36
72370;BME280;60343;-32.030;115.880;2022-12-01T07:38:39;100951.38;;;25.31;51.47
72370;BME280;60343;-32.030;115.880;2022-12-01T07:41:08;100957.31;;;25.13;52.77
72370;BME280;60343;-32.030;115.880;2022-12-01T07:43:38;100949.00;;;24.98;53.14
72370;BME280;60343;-32.030;115.880;2022-12-01T07:46:13;100947.78;;;24.84;53.17
72370;BME280;60343;-32.030;115.880;2022-12-01T07:48:41;100951.19;;;25.01;52.95
72370;BME280;60343;-32.030;115.880;2022-12-01T07:51:10;100940.28;;;25.11;52.78
72370;BME280;60343;-32.030;115.880;2022-12-01T07:53:41;100946.84;;;25.10;52.27
72370;BME280;60343;-32.030;115.880;2022-12-01T07:56:09;100945.78;;;25.16;51.33
72370;BME280;60343;-32.030;115.880;2022-12-01T07:58:37;100949.25;;;25.43;50.79
72370;BME280;60343;-32.030;115.880;2022-12-01T08:01:14;100948.00;;;25.76;49.83
72370;BME280;60343;-32.030;115.880;2022-12-01T08:03:42;100945.56;;;25.75;50.00
72370;BME280;60343;-32.030;115.880;2022-12-01T08:06:10;100942.81;;;25.75;49.55
72370;BME280;60343;-32.030;115.880;2022-12-01T08:08:39;100940.66;;;25.87;48.73
72370;BME280;60343;-32.030;115.880;2022-12-01T08:11:10;100930.88;;;26.36;48.51
72370;BME280;60343;-32.030;115.880;2022-12-01T08:13:38;100913.41;;;27.37;46.76
72370;BME280;60343;-32.030;115.880;2022-12-01T08:16:08;100916.69;;;27.44;45.66
72370;BME280;60343;-32.030;115.880;2022-12-01T08:18:42;100935.25;;;26.32;47.97
72370;BME280;60343;-32.030;115.880;2022-12-01T08:21:11;100930.88;;;25.44;50.87
72370;BME280;60343;-32.030;115.880;2022-12-01T08:23:39;100936.97;;;25.56;49.86
72370;BME280;60343;-32.030;115.880;2022-12-01T08:26:10;100937.13;;;25.29;48.64
72370;BME280;60343;-32.030;115.880;2022-12-01T08:28:38;100931.84;;;24.80;49.84
72370;BME280;60343;-32.030;115.880;2022-12-01T08:31:10;100925.06;;;24.51;51.23
72370;BME280;60343;-32.030;115.880;2022-12-01T08:33:44;100927.47;;;24.43;52.61
72370;BME280;60343;-32.030;115.880;2022-12-01T08:36:12;100921.94;;;24.38;50.36
72370;BME280;60343;-32.030;115.880;2022-12-01T08:38:41;100930.28;;;24.21;51.82
72370;BME280;60343;-32.030;115.880;2022-12-01T08:41:09;100924.63;;;24.06;52.70
72370;BME280;60343;-32.030;115.880;2022-12-01T08:43:37;100935.63;;;23.84;53.99
72370;BME280;60343;-32.030;115.880;2022-12-01T08:46:05;100926.25;;;23.80;53.88
72370;BME280;60343;-32.030;115.880;2022-12-01T08:48:33;100926.03;;;23.60;53.98
72370;BME280;60343;-32.030;115.880;2022-12-01T08:51:09;100919.19;;;23.57;54.20
72370;BME280;60343;-32.030;115.880;2022-12-01T08:53:39;100937.59;;;23.45;55.18
72370;BME280;60343;-32.030;115.880;2022-12-01T08:56:10;100936.22;;;23.26;55.10
72370;BME280;60343;-32.030;115.880;2022-12-01T08:58:38;100942.84;;;22.91;56.18
72370;BME280;60343;-32.030;115.880;2022-12-01T09:01:07;100944.34;;;22.82;56.82
72370;BME280;60343;-32.030;115.880;2022-12-01T09:03:36;100944.91;;;22.84;56.75
72370;BME280;60343;-32.030;115.880;2022-12-01T09:06:11;100947.25;;;22.76;57.80
72370;BME280;60343;-32.030;115.880;2022-12-01T09:08:39;100945.66;;;22.63;57.40
72370;BME280;60343;-32.030;115.880;2022-12-01T09:11:09;100952.66;;;22.59;57.39
72370;BME280;60343;-32.030;115.880;2022-12-01T09:13:38;100949.03;;;22.53;57.71
72370;BME280;60343;-32.030;115.880;2022-12-01T09:16:07;100950.69;;;22.38;58.29
72370;BME280;60343;-32.030;115.880;2022-12-01T09:18:35;100950.09;;;22.36;58.16
72370;BME280;60343;-32.030;115.880;2022-12-01T09:21:16;100950.50;;;22.28;58.17
72370;BME280;60343;-32.030;115.880;2022-12-01T09:23:44;100958.94;;;22.26;58.84
72370;BME280;60343;-32.030;115.880;2022-12-01T09:26:13;100959.06;;;22.19;58.26
72370;BME280;60343;-32.030;115.880;2022-12-01T09:28:41;100968.72;;;22.10;58.75
72370;BME280;60343;-32.030;115.880;2022-12-01T09:31:10;100962.59;;;22.03;59.25
72370;BME280;60343;-32.030;115.880;2022-12-01T09:33:38;100955.97;;;21.99;59.32
72370;BME280;60343;-32.030;115.880;2022-12-01T09:36:07;100958.84;;;21.93;59.86
72370;BME280;60343;-32.030;115.880;2022-12-01T09:38:41;100964.66;;;21.84;60.86
72370;BME280;60343;-32.030;115.880;2022-12-01T09:41:13;100966.91;;;21.88;61.04
72370;BME280;60343;-32.030;115.880;2022-12-01T09:43:46;100972.38;;;21.88;61.54
72370;BME280;60343;-32.030;115.880;2022-12-01T09:46:17;100965.38;;;21.80;61.59
72370;BME280;60343;-32.030;115.880;2022-12-01T09:48:48;100964.13;;;21.71;61.94
72370;BME280;60343;-32.030;115.880;2022-12-01T09:51:19;100975.59;;;21.73;61.94
72370;BME280;60343;-32.030;115.880;2022-12-01T09:53:54;100978.41;;;21.78;61.93
72370;BME280;60343;-32.030;115.880;2022-12-01T09:56:24;100983.09;;;21.66;61.96
72370;BME280;60343;-32.030;115.880;2022-12-01T09:58:53;100987.84;;;21.59;61.47
72370;BME280;60343;-32.030;115.880;2022-12-01T10:01:25;100984.44;;;21.52;61.28
72370;BME280;60343;-32.030;115.880;2022-12-01T10:03:59;100999.84;;;21.46;61.23
72370;BME280;60343;-32.030;115.880;2022-12-01T10:06:36;101001.50;;;21.35;61.47
72370;BME280;60343;-32.030;115.880;2022-12-01T10:09:19;100994.41;;;21.34;61.15
72370;BME280;60343;-32.030;115.880;2022-12-01T10:11:51;100994.16;;;21.24;61.88
72370;BME280;60343;-32.030;115.880;2022-12-01T10:14:21;101003.13;;;21.13;63.00
72370;BME280;60343;-32.030;115.880;2022-12-01T10:16:57;101003.00;;;21.08;62.92
72370;BME280;60343;-32.030;115.880;2022-12-01T10:19:27;100996.50;;;21.09;62.56
72370;BME280;60343;-32.030;115.880;2022-12-01T10:22:17;100998.53;;;21.02;62.36
72370;BME280;60343;-32.030;115.880;2022-12-01T10:24:55;101008.34;;;20.91;62.88
72370;BME280;60343;-32.030;115.880;2022-12-01T10:27:34;101009.41;;;20.90;62.69
72370;BME280;60343;-32.030;115.880;2022-12-01T10:30:11;101001.59;;;20.94;62.13
72370;BME280;60343;-32.030;115.880;2022-12-01T10:32:42;101003.34;;;20.88;61.70
72370;BME280;60343;-32.030;115.880;2022-12-01T10:47:00;101002.50;;;20.65;63.84
72370;BME280;60343;-32.030;115.880;2022-12-01T10:49:38;101001.31;;;20.61;64.45
72370;BME280;60343;-32.030;115.880;2022-12-01T10:52:09;101002.25;;;20.54;65.09
72370;BME280;60343;-32.030;115.880;2022-12-01T10:54:52;101011.84;;;20.57;65.05
72370;BME280;60343;-32.030;115.880;2022-12-01T10:57:20;101006.16;;;20.59;65.26
72370;BME280;60343;-32.030;115.880;2022-12-01T11:00:04;101008.88;;;20.59;64.90
72370;BME280;60343;-32.030;115.880;2022-12-01T11:02:38;101007.69;;;20.54;64.73
72370;BME280;60343;-32.030;115.880;2022-12-01T11:05:21;101016.63;;;20.43;65.46
72370;BME280;60343;-32.030;115.880;2022-12-01T11:07:51;101016.50;;;20.38;66.06
72370;BME280;60343;-32.030;115.880;2022-12-01T11:10:21;101019.50;;;20.48;65.78
72370;BME280;60343;-32.030;115.880;2022-12-01T11:12:54;101016.50;;;20.38;66.10
72370;BME280;60343;-32.030;115.880;2022-12-01T11:15:27;101021.50;;;20.41;65.71
72370;BME280;60343;-32.030;115.880;2022-12-01T11:18:22;101022.19;;;20.37;65.95
72370;BME280;60343;-32.030;115.880;2022-12-01T11:21:08;101018.69;;;20.30;66.50
72370;BME280;60343;-32.030;115.880;2022-12-01T11:23:38;101030.78;;;20.34;66.40
72370;BME280;60343;-32.030;115.880;2022-12-01T11:26:14;101033.75;;;20.32;66.52
72370;BME280;60343;-32.030;115.880;2022-12-01T11:28:55;101032.00;;;20.38;66.45
72370;BME280;60343;-32.030;115.880;2022-12-01T11:31:35;101032.00;;;20.38;66.30
72370;BME280;60343;-32.030;115.880;2022-12-01T11:34:17;101024.84;;;20.25;66.76
72370;BME280;60343;-32.030;115.880;2022-12-01T11:36:47;101023.16;;;20.24;67.05
72370;BME280;60343;-32.030;115.880;2022-12-01T11:39:22;101023.31;;;20.29;66.53
72370;BME280;60343;-32.030;115.880;2022-12-01T11:41:58;101020.81;;;20.28;66.48
72370;BME280;60343;-32.030;115.880;2022-12-01T11:44:26;101014.69;;;20.32;66.23
72370;BME280;60343;-32.030;115.880;2022-12-01T11:46:55;101019.69;;;20.35;66.35
72370;BME280;60343;-32.030;115.880;2022-12-01T11:49:29;101015.22;;;20.41;66.41
72370;BME280;60343;-32.030;115.880;2022-12-01T11:51:57;101021.38;;;20.36;66.71
72370;BME280;60343;-32.030;115.880;2022-12-01T11:54:35;101024.84;;;20.25;66.93
72370;BME280;60343;-32.030;115.880;2022-12-01T11:57:03;101019.09;;;20.33;66.52
72370;BME280;60343;-32.030;115.880;2022-12-01T11:59:31;101023.00;;;20.37;66.07
72370;BME280;60343;-32.030;115.880;2022-12-01T12:02:12;101020.06;;;20.39;65.24
72370;BME280;60343;-32.030;115.880;2022-12-01T12:07:58;101030.78;;;20.34;64.46
72370;BME280;60343;-32.030;115.880;2022-12-01T12:10:38;101036.47;;;20.32;65.07
72370;BME280;60343;-32.030;115.880;2022-12-01T12:16:04;101047.94;;;20.34;65.11
72370;BME280;60343;-32.030;115.880;2022-12-01T12:18:53;101046.88;;;20.35;65.42
72370;BME280;60343;-32.030;115.880;2022-12-01T12:21:32;101051.13;;;20.31;65.90
72370;BME280;60343;-32.030;115.880;2022-12-01T12:24:14;101058.72;;;20.23;65.90
72370;BME280;60343;-32.030;115.880;2022-12-01T12:26:52;101059.41;;;20.18;66.52
72370;BME280;60343;-32.030;115.880;2022-12-01T12:29:32;101066.16;;;20.16;66.54
72370;BME280;60343;-32.030;115.880;2022-12-01T12:32:12;101065.91;;;20.17;66.66
72370;BME280;60343;-32.030;115.880;2022-12-01T12:34:47;101061.03;;;20.07;66.91
72370;BME280;60343;-32.030;115.880;2022-12-01T12:37:33;101069.84;;;20.03;67.31
72370;BME280;60343;-32.030;115.880;2022-12-01T12:40:28;101079.06;;;20.02;67.18
72370;BME280;60343;-32.030;115.880;2022-12-01T12:43:08;101084.44;;;20.08;67.05
72370;BME280;60343;-32.030;115.880;2022-12-01T12:45:49;101088.59;;;20.11;66.70
72370;BME280;60343;-32.030;115.880;2022-12-01T12:48:25;101090.22;;;20.12;66.75
72370;BME280;60343;-32.030;115.880;2022-12-01T12:50:59;101097.25;;;20.20;66.68
72370;BME280;60343;-32.030;115.880;2022-12-01T12:53:47;101099.38;;;20.18;66.61
72370;BME280;60343;-32.030;115.880;2022-12-01T12:56:19;101099.06;;;20.07;67.08
72370;BME280;60343;-32.030;115.880;2022-12-01T12:58:53;101104.00;;;19.99;67.54
72370;BME280;60343;-32.030;115.880;2022-12-01T13:01:25;101097.94;;;19.97;67.98
72370;BME280;60343;-32.030;115.880;2022-12-01T13:03:57;101112.06;;;20.05;68.00
72370;BME280;60343;-32.030;115.880;2022-12-01T13:06:31;101109.66;;;19.97;68.30
72370;BME280;60343;-32.030;115.880;2022-12-01T13:09:10;101105.50;;;19.95;68.88
72370;BME280;60343;-32.030;115.880;2022-12-01T13:11:45;101105.81;;;20.05;68.50